ADDS METAR Data INFO
IDs: Format: Raw Decoded Include TAF

Data at: 1714 UTC 23 Oct 2017

KLWS 231656Z 31003KT 10SM CLR 09/05 A3067 RMK AO2 SLP390 T00940050
KLWS 231556Z 00000KT 10SM CLR 07/04 A3066 RMK AO2 SLP388 T00720039
KLWS 231456Z 00000KT 10SM CLR 07/04 A3064 RMK AO2 SLP380 T00670039 53021
KLWS 231356Z 21003KT 10SM CLR 06/03 A3060 RMK AO2 SLP368 T00610033
KLWS 231256Z AUTO 00000KT 10SM CLR 07/03 A3058 RMK AO2 SLP361 T00670033
KLWS 231156Z AUTO 00000KT 10SM CLR 07/03 A3057 RMK AO2 SLP356 T00720033 10122 20072 51024
KLWS 231056Z AUTO 09007KT 10SM CLR 08/04 A3055 RMK AO2 SLP348 T00830039
KLWS 230956Z AUTO 00000KT 10SM CLR 09/03 A3053 RMK AO2 SLP340 T00890033
KLWS 230856Z AUTO 00000KT 10SM CLR 11/03 A3050 RMK AO2 SLP329 T01110033 53023
KLWS 230756Z AUTO VRB05KT 10SM CLR 10/04 A3047 RMK AO2 SLP320 T01000039 401780094
KLWS 230656Z AUTO 10SM CLR 12/03 A3045 RMK AO2 SLP312 T01170028
KLWS 230556Z AUTO 22004KT 10SM CLR 11/04 A3043 RMK AO2 SLP305 T01110039 10161 20111 53023
KLWS 230456Z 20006KT 10SM CLR 11/04 A3039 RMK AO2 SLP293 T01110039
KLWS 230356Z 20006KT 10SM FEW050 SCT065 OVC095 13/03 A3039 RMK AO2 SLP292 T01280033
KLWS 230256Z 17006KT 10SM BKN085 13/04 A3036 RMK AO2 SLP280 T01280039 51035
KLWS 230156Z 08003KT 10SM CLR 13/03 A3033 RMK AO2 SLP272 T01330028
KLWS 230056Z 24005KT 10SM CLR 14/03 A3029 RMK AO2 SLP258 T01390028
KLWS 222356Z 26011G20KT 10SM CLR 16/03 A3025 RMK AO2 SLP242 T01610033 10178 20161 51026
KLWS 222256Z 26015KT 10SM CLR 17/04 A3023 RMK AO2 SLP237 T01670039
KLWS 222156Z 28016G26KT 10SM FEW065 17/03 A3021 RMK AO2 PK WND 26033/2103 SLP227 T01670028
KLWS 222056Z 28020G29KT 10SM CLR 17/04 A3017 RMK AO2 PK WND 26033/2018 SLP215 T01670044 51034
KLWS 221956Z 27020G30KT 10SM CLR 17/04 A3013 RMK AO2 PK WND 27030/1955 SLP203 T01670039
KLWS 221856Z 27018G24KT 10SM CLR 17/06 A3011 RMK AO2 PK WND 26033/1839 SLP195 T01720056
KLWS 221756Z 26024G31KT 10SM CLR 17/05 A3006 RMK AO2 PK WND 24031/1755 SLP180 60000 T01670050 10178 20133 53040
KLWS 221656Z 27017G24KT 10SM BKN060 BKN075 BKN090 17/07 A3003 RMK AO2 SLP169 T01670072
KLWS 221556Z 22016G25KT 10SM SCT075 OVC100 15/09 A2997 RMK AO2 SLP149 T01500089
KLWS 221456Z 21016G20KT 10SM BKN060 BKN070 OVC085 14/09 A2994 RMK AO2 RAE55 SLP141 P0000 60000 T01440089 53023
KLWS 221356Z 21014KT 10SM -RA BKN055 OVC070 14/09 A2991 RMK AO2 RAB12 SLP130 P0000 T01390089
KLWS 221256Z AUTO 21015G21KT 10SM FEW060 OVC080 14/08 A2989 RMK AO2 PK WND 19026/1208 SLP124 T01440078
KLWS 221156Z AUTO 19019KT 10SM OVC080 14/08 A2987 RMK AO2 PK WND 19028/1105 SLP117 70027 T01390078 10139 20106 53006
KLWS 221056Z AUTO 18020G30KT 10SM OVC090 13/07 A2986 RMK AO2 PK WND 18033/1010 SLP112 T01330072
KLWS 220956Z AUTO 20024G32KT 10SM OVC100 13/07 A2985 RMK AO2 PK WND 19034/0909 SLP108 T01330067
KLWS 220856Z AUTO 18019G31KT 10SM BKN090 OVC110 13/06 A2985 RMK AO2 PK WND 18032/0832 SLP109 T01280061 56010
KLWS 220756Z AUTO 18018G31KT 10SM OVC075 12/06 A2987 RMK AO2 PK WND 19038/0720 SLP116 T01220056 401280056
KLWS 220656Z AUTO 19030G39KT 10SM OVC080 12/06 A2986 RMK AO2 PK WND 21041/0626 SLP112 T01220056
KLWS 220556Z AUTO 19023G30KT 10SM OVC075 11/05 A2988 RMK AO2 PK WND 18033/0545 RAE0457 SLP121 P0000 60023 T01060050 10106 20067 58023